Time;durP1;ratioP1;P1;durP2;ratioP2;P2;SDS_P1;SDS_P2;PMS_P1;PMS_P2;Temp;Humidity;BMP_temperature;BMP_pressure;BME280_temperature;BME280_humidity;BME280_pressure;Samples;Min_cycle;Max_cycle;Signal;HPM_P1;HPM_P2
2022/12/06 00:01:17;;;;;;;7.22;3.40;;;6.80;99.90;;;;;;5017796;28;88161;-75
2022/12/06 00:03:46;;;;;;;8.13;4.15;;;6.80;99.90;;;;;;5017588;28;88438;-75
2022/12/06 00:06:16;;;;;;;9.43;3.83;;;6.80;99.90;;;;;;5017077;28;89579;-75
2022/12/06 00:08:45;;;;;;;9.70;3.60;;;6.80;99.90;;;;;;5017439;28;89245;-75
2022/12/06 00:11:21;;;;;;;8.10;3.55;;;6.80;99.90;;;;;;5016131;28;89354;-75
2022/12/06 00:13:55;;;;;;;8.85;3.92;;;6.80;99.90;;;;;;5015935;28;91257;-75
2022/12/06 00:16:23;;;;;;;5.93;3.13;;;6.80;99.90;;;;;;5016301;28;88018;-76
2022/12/06 00:18:51;;;;;;;8.88;4.30;;;6.80;99.90;;;;;;5016973;28;88168;-75
2022/12/06 00:21:24;;;;;;;11.80;3.90;;;6.80;99.90;;;;;;4999513;28;88935;-75
2022/12/06 00:23:53;;;;;;;7.22;3.65;;;6.80;99.90;;;;;;5016530;28;88037;-75
2022/12/06 00:26:21;;;;;;;7.00;3.80;;;6.90;99.90;;;;;;5016075;28;88808;-76
2022/12/06 00:28:52;;;;;;;6.75;3.45;;;6.80;99.90;;;;;;5016183;28;88555;-75
2022/12/06 00:31:21;;;;;;;7.63;3.40;;;6.90;99.90;;;;;;5015516;28;89274;-76
2022/12/06 00:33:49;;;;;;;7.70;3.85;;;6.80;99.90;;;;;;5016875;28;88328;-75
2022/12/06 00:36:21;;;;;;;8.18;3.50;;;6.80;99.90;;;;;;5017249;28;88854;-75
2022/12/06 00:38:49;;;;;;;6.10;4.00;;;6.90;99.90;;;;;;5015541;28;91584;-76
2022/12/06 00:41:19;;;;;;;7.68;3.75;;;6.90;99.90;;;;;;5032510;28;89327;-76
2022/12/06 00:43:46;;;;;;;5.85;2.63;;;6.90;99.90;;;;;;5015434;28;88843;-76
2022/12/06 00:46:18;;;;;;;6.97;3.10;;;6.80;99.90;;;;;;5017122;28;88877;-76
2022/12/06 00:48:46;;;;;;;7.25;3.28;;;6.90;99.90;;;;;;5016478;28;88566;-76
2022/12/06 00:51:15;;;;;;;8.25;2.92;;;6.80;99.90;;;;;;5015842;28;88118;-75
2022/12/06 00:53:43;;;;;;;8.57;3.75;;;6.90;99.90;;;;;;5016175;28;88383;-76
2022/12/06 00:56:11;;;;;;;9.45;3.33;;;6.80;99.90;;;;;;5016190;28;89674;-75
2022/12/06 00:58:38;;;;;;;9.90;2.95;;;6.90;99.90;;;;;;5017353;28;89427;-76
2022/12/06 01:01:11;;;;;;;12.13;3.10;;;6.80;99.90;;;;;;5018670;28;89587;-75
2022/12/06 01:03:39;;;;;;;7.00;3.03;;;6.80;99.90;;;;;;5020674;28;88748;-75
2022/12/06 01:06:09;;;;;;;5.57;2.95;;;6.80;99.90;;;;;;5020007;28;88056;-75
2022/12/06 01:08:37;;;;;;;8.52;3.15;;;6.80;99.90;;;;;;5002299;28;91689;-76
2022/12/06 01:11:05;;;;;;;5.82;3.20;;;6.80;99.90;;;;;;5020029;28;88036;-76
2022/12/06 01:13:33;;;;;;;9.13;3.50;;;6.80;99.90;;;;;;5019125;28;88386;-75
2022/12/06 01:16:08;;;;;;;9.35;3.45;;;6.80;99.90;;;;;;5018494;28;91362;-76
2022/12/06 01:18:35;;;;;;;5.57;3.30;;;6.90;99.90;;;;;;5018524;28;91157;-76
2022/12/06 01:21:23;;;;;;;6.55;3.58;;;6.90;99.90;;;;;;5018223;28;88709;-75
2022/12/06 01:23:53;;;;;;;9.75;3.97;;;7.00;99.90;;;;;;5020314;28;88456;-75
2022/12/06 01:26:26;;;;;;;8.73;3.80;;;7.00;99.90;;;;;;5019732;28;88027;-75
2022/12/06 01:28:53;;;;;;;5.22;3.25;;;7.10;99.90;;;;;;5019921;28;88681;-75
2022/12/06 01:31:21;;;;;;;10.77;4.75;;;7.00;99.90;;;;;;5018216;28;99698;-75
2022/12/06 01:33:47;;;;;;;8.38;3.75;;;7.10;99.90;;;;;;5019717;28;89137;-75
2022/12/06 01:36:18;;;;;;;10.50;4.40;;;7.10;99.90;;;;;;5019457;28;88038;-75
2022/12/06 01:38:53;;;;;;;11.13;4.65;;;7.10;99.90;;;;;;5002054;28;89673;-75
2022/12/06 01:41:22;;;;;;;11.95;4.35;;;7.00;99.90;;;;;;5001668;28;89441;-76
2022/12/06 01:43:50;;;;;;;6.68;3.28;;;7.00;99.90;;;;;;5019548;28;88249;-75
2022/12/06 01:46:27;;;;;;;8.00;3.92;;;7.00;99.90;;;;;;5017428;28;90847;-75
2022/12/06 01:49:18;;;;;;;5.82;3.28;;;7.00;99.90;;;;;;5018310;28;92018;-75
2022/12/06 01:51:55;;;;;;;9.50;3.25;;;6.90;99.90;;;;;;5001674;28;88100;-75
2022/12/06 01:54:23;;;;;;;6.60;3.00;;;6.80;99.90;;;;;;5017757;28;91173;-75
2022/12/06 01:56:52;;;;;;;6.57;2.85;;;6.80;99.90;;;;;;5018061;28;88898;-76
2022/12/06 01:59:21;;;;;;;6.15;3.10;;;6.80;99.90;;;;;;5001160;28;91711;-76
2022/12/06 02:01:48;;;;;;;4.32;2.83;;;6.70;99.90;;;;;;5018094;28;88672;-75
2022/12/06 02:04:17;;;;;;;6.20;3.08;;;6.70;99.90;;;;;;5019536;28;88328;-75
2022/12/06 02:06:46;;;;;;;6.68;3.08;;;6.70;99.90;;;;;;5019240;28;88936;-76
2022/12/06 02:09:14;;;;;;;5.68;2.88;;;6.70;99.90;;;;;;5034260;27;88662;-76
2022/12/06 02:11:42;;;;;;;6.25;3.25;;;6.70;99.90;;;;;;5001123;28;88783;-76
2022/12/06 02:14:14;;;;;;;7.10;3.30;;;6.70;99.90;;;;;;5017577;28;88393;-75
2022/12/06 02:17:07;;;;;;;9.55;3.70;;;6.70;99.90;;;;;;5018083;28;88910;-75
2022/12/06 02:19:56;;;;;;;9.60;3.25;;;6.70;99.90;;;;;;5017579;28;91160;-75
2022/12/06 02:22:34;;;;;;;7.93;3.20;;;6.70;99.90;;;;;;5017626;28;88403;-75
2022/12/06 02:25:37;;;;;;;7.00;3.95;;;6.60;99.90;;;;;;5017486;28;90956;-75
2022/12/06 02:28:33;;;;;;;7.95;3.45;;;6.60;99.90;;;;;;5017308;28;91671;-75
2022/12/06 02:31:20;;;;;;;7.13;3.38;;;6.50;99.90;;;;;;5017967;28;90131;-75
2022/12/06 02:34:13;;;;;;;6.40;3.10;;;6.60;99.90;;;;;;4978307;28;88272;-76
2022/12/06 02:36:50;;;;;;;8.00;3.47;;;6.50;99.90;;;;;;5034278;28;91092;-75
2022/12/06 02:39:33;;;;;;;5.30;3.17;;;6.50;99.90;;;;;;5017256;28;88705;-75
2022/12/06 02:42:26;;;;;;;5.60;3.55;;;6.60;99.90;;;;;;5017568;28;89235;-75
2022/12/06 02:44:55;;;;;;;11.20;4.38;;;6.50;99.90;;;;;;5016948;28;88752;-76
2022/12/06 02:47:29;;;;;;;7.35;3.85;;;6.50;99.90;;;;;;5033891;28;91112;-76
2022/12/06 02:49:58;;;;;;;7.57;3.92;;;6.50;99.90;;;;;;5018808;28;88995;-75
2022/12/06 02:52:27;;;;;;;11.13;4.18;;;6.50;99.90;;;;;;5017934;28;88745;-75
2022/12/06 02:54:57;;;;;;;7.15;3.28;;;6.50;99.90;;;;;;5017861;28;87927;-75
2022/12/06 02:57:43;;;;;;;6.88;3.08;;;6.50;99.90;;;;;;5018775;28;88119;-76
2022/12/06 03:00:28;;;;;;;6.65;3.40;;;6.50;99.90;;;;;;5018693;28;88873;-75
2022/12/06 03:03:14;;;;;;;8.00;2.97;;;6.50;99.90;;;;;;5017229;28;91157;-75
2022/12/06 03:06:05;;;;;;;6.32;3.25;;;6.50;99.90;;;;;;5017063;28;89218;-75
2022/12/06 03:08:32;;;;;;;7.57;3.95;;;6.40;99.90;;;;;;5018682;28;88437;-75
2022/12/06 03:11:01;;;;;;;6.15;3.40;;;6.40;99.90;;;;;;5016926;28;91257;-75
2022/12/06 03:13:44;;;;;;;4.90;2.83;;;6.50;99.90;;;;;;5016833;28;88768;-75
2022/12/06 03:16:25;;;;;;;6.28;2.83;;;6.50;99.90;;;;;;5018143;28;89948;-75
2022/12/06 03:19:02;;;;;;;6.20;2.30;;;6.50;99.90;;;;;;5016857;28;90913;-75
2022/12/06 03:22:18;;;;;;;7.80;2.80;;;6.40;99.90;;;;;;5017739;28;88535;-75
2022/12/06 03:24:46;;;;;;;5.93;3.10;;;6.50;99.90;;;;;;4983677;28;88344;-75
2022/12/06 03:27:17;;;;;;;5.70;2.25;;;6.40;99.90;;;;;;5017022;28;88413;-75
2022/12/06 03:29:49;;;;;;;3.38;2.47;;;6.40;99.90;;;;;;5018331;28;88337;-75
2022/12/06 03:32:21;;;;;;;7.53;2.75;;;6.40;99.90;;;;;;5016142;28;92093;-76
2022/12/06 03:34:51;;;;;;;6.72;2.60;;;6.40;99.90;;;;;;5016356;28;91866;-75
2022/12/06 03:37:22;;;;;;;5.40;2.15;;;6.40;99.90;;;;;;5016407;28;89805;-75
2022/12/06 03:40:15;;;;;;;5.85;2.10;;;6.40;99.90;;;;;;5018159;28;88397;-75
2022/12/06 03:42:42;;;;;;;8.57;2.40;;;6.40;99.90;;;;;;5016684;28;91721;-75
2022/12/06 03:45:11;;;;;;;3.25;2.33;;;6.40;99.90;;;;;;5017845;28;88652;-75
2022/12/06 03:48:09;;;;;;;4.70;2.30;;;6.40;99.90;;;;;;5017458;28;97255;-75
2022/12/06 03:50:44;;;;;;;6.10;2.53;;;6.40;99.90;;;;;;5033375;28;90953;-75
2022/12/06 03:53:11;;;;;;;5.53;2.70;;;6.40;99.90;;;;;;5016540;28;91343;-75
2022/12/06 03:55:38;;;;;;;7.18;3.00;;;6.30;99.90;;;;;;4999107;28;102341;-75
2022/12/06 03:58:05;;;;;;;5.82;2.33;;;6.40;99.90;;;;;;5016243;28;88798;-75
2022/12/06 04:00:32;;;;;;;7.15;2.42;;;6.40;99.90;;;;;;5017221;28;88442;-75
2022/12/06 04:02:59;;;;;;;3.15;2.45;;;6.40;99.90;;;;;;5016230;28;90558;-76
2022/12/06 04:05:26;;;;;;;3.40;2.35;;;6.30;99.90;;;;;;5017121;28;88905;-75
2022/12/06 04:07:53;;;;;;;4.30;2.65;;;6.40;99.90;;;;;;5017722;28;87911;-75
2022/12/06 04:10:20;;;;;;;3.92;2.22;;;6.40;99.90;;;;;;5017443;28;88470;-76
2022/12/06 04:13:01;;;;;;;5.20;2.25;;;6.40;99.90;;;;;;5032838;28;91533;-75
2022/12/06 04:15:37;;;;;;;3.38;1.83;;;6.40;99.90;;;;;;5016596;28;87663;-75
2022/12/06 04:18:12;;;;;;;4.10;1.65;;;6.40;99.90;;;;;;5017708;28;88152;-75
2022/12/06 04:23:36;;;;;;;2.20;1.95;;;6.30;99.90;;;;;;5017022;28;89542;-75
2022/12/06 04:26:05;;;;;;;3.97;2.40;;;6.30;99.90;;;;;;5017247;28;89309;-75
2022/12/06 04:39:36;;;;;;;3.05;1.55;;;6.20;99.90;;;;;;5020641;28;87912;-75
2022/12/06 04:44:48;;;;;;;2.58;1.90;;;6.10;99.90;;;;;;5019191;28;91449;-76
2022/12/06 04:47:15;;;;;;;3.80;2.08;;;6.10;99.90;;;;;;5019396;28;88047;-75
2022/12/06 04:49:42;;;;;;;3.45;1.70;;;6.10;99.90;;;;;;5002394;28;88813;-75
2022/12/06 04:52:09;;;;;;;2.15;1.60;;;6.10;99.90;;;;;;5019804;28;107527;-75
2022/12/06 04:54:36;;;;;;;4.07;2.47;;;6.10;99.90;;;;;;5001677;28;91472;-75
2022/12/06 04:57:09;;;;;;;3.83;2.30;;;6.10;99.90;;;;;;5020430;28;88448;-75
2022/12/06 04:59:38;;;;;;;4.65;2.40;;;6.10;99.90;;;;;;5020615;28;88433;-75
2022/12/06 05:02:06;;;;;;;5.00;2.63;;;6.10;99.90;;;;;;5020383;28;88076;-75
2022/12/06 05:04:33;;;;;;;6.07;2.55;;;6.20;99.90;;;;;;5018608;28;91660;-75
2022/12/06 05:07:00;;;;;;;4.05;2.00;;;6.20;99.90;;;;;;5002841;28;91640;-76
2022/12/06 05:09:27;;;;;;;3.80;2.17;;;6.30;99.90;;;;;;5020227;28;87975;-75
2022/12/06 05:11:54;;;;;;;3.03;2.03;;;6.30;99.90;;;;;;5019061;28;88225;-75
2022/12/06 05:14:21;;;;;;;2.40;1.88;;;6.30;99.90;;;;;;5019887;28;89232;-75
2022/12/06 05:16:47;;;;;;;3.13;1.98;;;6.30;99.90;;;;;;5002396;28;89541;-75
2022/12/06 05:19:15;;;;;;;4.38;2.40;;;6.30;99.90;;;;;;5018722;28;89600;-75
2022/12/06 05:21:42;;;;;;;6.65;2.22;;;6.40;99.90;;;;;;5019993;28;88474;-75
2022/12/06 05:24:09;;;;;;;3.95;2.80;;;6.40;99.90;;;;;;5020089;28;88455;-76
2022/12/06 05:26:36;;;;;;;3.88;2.42;;;6.40;99.90;;;;;;5001739;28;89511;-75
2022/12/06 05:29:03;;;;;;;4.90;2.40;;;6.40;99.90;;;;;;4985536;28;89290;-75
2022/12/06 05:31:29;;;;;;;5.22;2.72;;;6.40;99.90;;;;;;5018768;28;91137;-75
2022/12/06 05:33:56;;;;;;;3.83;2.30;;;6.50;99.90;;;;;;5019992;28;89539;-75
2022/12/06 05:36:25;;;;;;;3.03;2.08;;;6.50;99.90;;;;;;5018544;28;88711;-75
2022/12/06 05:38:52;;;;;;;3.85;2.20;;;6.50;99.90;;;;;;5018386;28;88686;-75
2022/12/06 05:41:21;;;;;;;2.83;1.98;;;6.50;99.90;;;;;;5035355;28;88501;-75
2022/12/06 05:43:48;;;;;;;4.20;2.72;;;6.50;99.90;;;;;;5019150;28;88807;-75
2022/12/06 05:46:15;;;;;;;4.05;2.35;;;6.50;99.90;;;;;;5019637;28;88719;-75
2022/12/06 05:48:43;;;;;;;3.80;2.42;;;6.50;99.90;;;;;;5019586;28;88015;-75
2022/12/06 05:51:10;;;;;;;5.28;3.03;;;6.50;99.90;;;;;;5019766;28;88350;-75
2022/12/06 05:53:38;;;;;;;4.32;2.80;;;6.60;99.90;;;;;;5018731;28;88558;-75
2022/12/06 05:56:08;;;;;;;3.20;2.50;;;6.60;99.90;;;;;;5001930;28;91281;-75
2022/12/06 05:58:35;;;;;;;5.05;3.15;;;6.60;99.90;;;;;;5019273;28;88510;-75
2022/12/06 06:01:04;;;;;;;3.20;2.42;;;6.60;99.90;;;;;;5017390;28;104297;-75
2022/12/06 06:03:30;;;;;;;6.53;2.95;;;6.60;99.90;;;;;;5018894;28;89571;-75
2022/12/06 06:05:59;;;;;;;4.57;2.22;;;6.60;99.90;;;;;;5018181;28;89431;-75
2022/12/06 06:08:28;;;;;;;5.07;2.75;;;6.70;99.90;;;;;;5018118;28;89133;-75
2022/12/06 06:10:56;;;;;;;3.50;2.20;;;6.70;99.90;;;;;;5001346;28;90906;-75
2022/12/06 06:13:23;;;;;;;7.53;2.50;;;6.70;99.90;;;;;;5034297;28;90407;-76
2022/12/06 06:15:50;;;;;;;5.28;2.83;;;6.70;99.90;;;;;;5019074;28;88562;-75
2022/12/06 06:18:18;;;;;;;2.60;2.35;;;6.70;99.90;;;;;;4968475;28;88651;-75
2022/12/06 06:20:53;;;;;;;3.72;2.40;;;6.70;99.90;;;;;;5001350;28;91159;-75
2022/12/06 06:23:20;;;;;;;3.53;2.20;;;6.70;99.90;;;;;;5019292;28;88720;-75
2022/12/06 06:25:47;;;;;;;6.38;2.60;;;6.60;99.90;;;;;;5018436;28;103663;-75
2022/12/06 06:28:15;;;;;;;4.13;2.50;;;6.60;99.90;;;;;;5017442;28;89259;-75
2022/12/06 06:30:42;;;;;;;11.60;3.00;;;6.60;99.90;;;;;;5017502;28;88335;-75
2022/12/06 06:33:09;;;;;;;4.10;2.55;;;6.60;99.90;;;;;;5017688;28;88974;-75
2022/12/06 06:35:38;;;;;;;7.10;2.60;;;6.60;99.90;;;;;;5034190;28;89614;-75
2022/12/06 06:38:05;;;;;;;5.05;3.03;;;6.50;99.90;;;;;;5017756;28;88053;-75
2022/12/06 06:40:33;;;;;;;10.70;3.72;;;6.50;99.90;;;;;;5034373;28;88425;-75
2022/12/06 06:43:16;;;;;;;4.15;2.20;;;6.50;99.90;;;;;;5001037;28;91179;-75
2022/12/06 06:45:44;;;;;;;;;;;6.50;99.90;;;;;;5019457;28;88518;-75
2022/12/06 06:48:12;;;;;;;5.97;2.30;;;6.40;99.90;;;;;;5020090;28;88049;-75
2022/12/06 06:50:39;;;;;;;3.45;2.13;;;6.30;99.90;;;;;;5033987;28;88183;-75
2022/12/06 06:53:06;;;;;;;4.70;2.70;;;6.30;99.90;;;;;;5000457;28;89067;-75
2022/12/06 06:55:34;;;;;;;2.67;2.30;;;6.30;99.90;;;;;;4999282;28;99994;-75
2022/12/06 06:58:01;;;;;;;3.50;2.63;;;6.30;99.90;;;;;;5033695;28;89568;-75
2022/12/06 07:00:28;;;;;;;3.40;2.03;;;6.30;99.90;;;;;;4984564;28;91047;-75
2022/12/06 07:02:55;;;;;;;3.85;2.13;;;6.30;99.90;;;;;;5018363;28;89071;-75
2022/12/06 07:05:23;;;;;;;6.75;2.40;;;6.30;99.90;;;;;;4984069;28;91626;-75
2022/12/06 07:07:50;;;;;;;5.47;2.45;;;6.30;99.90;;;;;;5018149;28;88040;-75
2022/12/06 07:10:17;;;;;;;3.05;2.10;;;6.30;99.90;;;;;;5019031;28;88426;-76
2022/12/06 07:12:43;;;;;;;5.30;2.40;;;6.30;99.90;;;;;;5018172;28;88638;-75
2022/12/06 07:15:10;;;;;;;2.80;2.17;;;6.20;99.90;;;;;;5017055;28;88758;-75
2022/12/06 07:17:37;;;;;;;4.38;2.10;;;6.20;99.90;;;;;;5016721;28;88757;-75
2022/12/06 07:20:05;;;;;;;3.08;2.10;;;6.10;99.90;;;;;;5017970;28;88987;-76
2022/12/06 07:22:32;;;;;;;4.85;2.63;;;6.00;99.90;;;;;;5018050;28;88985;-76
2022/12/06 07:24:59;;;;;;;5.20;3.00;;;6.00;99.90;;;;;;5017553;28;95155;-75
2022/12/06 07:27:26;;;;;;;3.65;2.83;;;5.80;99.90;;;;;;5016798;28;89126;-75
2022/12/06 07:29:53;;;;;;;3.30;2.45;;;5.70;99.90;;;;;;5033245;28;91056;-75
2022/12/06 07:32:20;;;;;;;4.95;2.88;;;5.60;99.90;;;;;;5016692;28;91367;-75
2022/12/06 07:34:47;;;;;;;4.80;3.42;;;5.50;99.90;;;;;;5018084;28;88472;-75
2022/12/06 07:37:17;;;;;;;8.05;4.97;;;5.40;99.90;;;;;;5033201;28;89509;-75
2022/12/06 07:39:43;;;;;;;11.52;7.82;;;5.40;99.90;;;;;;5000119;28;89432;-76
2022/12/06 07:45:03;;;;;;;5.50;4.00;;;5.20;99.90;;;;;;5002190;28;92030;-75
2022/12/06 07:47:34;;;;;;;;;;;5.10;99.90;;;;;;5016913;28;88080;-75
2022/12/06 07:50:02;;;;;;;6.20;3.83;;;5.00;99.90;;;;;;5018907;28;88411;-76
2022/12/06 07:52:35;;;;;;;8.55;5.60;;;5.00;99.90;;;;;;4999931;28;90514;-75
2022/12/06 07:55:04;;;;;;;8.07;6.28;;;4.90;99.90;;;;;;5017069;28;87957;-76
2022/12/06 07:57:31;;;;;;;7.05;5.15;;;4.90;99.90;;;;;;5017606;28;88589;-75
2022/12/06 07:59:58;;;;;;;7.47;4.10;;;4.90;99.90;;;;;;5033035;28;103304;-75
2022/12/06 08:02:26;;;;;;;7.35;4.10;;;4.90;99.90;;;;;;5017761;28;88885;-75
2022/12/06 08:04:54;;;;;;;4.82;3.72;;;4.90;99.90;;;;;;5017427;28;88633;-75
2022/12/06 08:07:22;;;;;;;8.18;3.97;;;4.80;99.90;;;;;;5018522;28;88754;-75
2022/12/06 08:09:50;;;;;;;7.43;4.88;;;4.80;99.90;;;;;;5036500;28;90853;-75
2022/12/06 08:12:18;;;;;;;8.05;4.60;;;4.80;99.90;;;;;;5036395;28;91525;-75
2022/12/06 08:14:45;;;;;;;8.55;4.47;;;4.80;99.90;;;;;;5019874;28;88712;-75
2022/12/06 08:17:13;;;;;;;5.90;3.95;;;4.80;99.90;;;;;;5036557;28;88135;-75
2022/12/06 08:19:40;;;;;;;7.13;3.83;;;4.80;99.90;;;;;;5020873;28;90502;-75
2022/12/06 08:22:07;;;;;;;5.60;3.60;;;4.80;99.90;;;;;;5019501;28;88614;-75
2022/12/06 08:24:34;;;;;;;4.88;3.85;;;4.80;99.90;;;;;;5003397;28;92322;-75
2022/12/06 08:27:01;;;;;;;4.85;3.20;;;4.70;99.90;;;;;;5019533;28;88016;-76
2022/12/06 08:29:28;;;;;;;4.13;3.25;;;4.70;99.90;;;;;;5021082;28;88287;-75
2022/12/06 08:31:55;;;;;;;4.75;2.78;;;4.80;99.90;;;;;;5018862;28;91972;-75
2022/12/06 08:34:21;;;;;;;4.95;2.97;;;4.80;99.90;;;;;;5019303;28;92043;-74
2022/12/06 08:36:48;;;;;;;5.47;2.85;;;4.80;99.90;;;;;;5020753;28;88042;-74
2022/12/06 08:39:15;;;;;;;5.55;2.85;;;4.80;99.90;;;;;;5020358;28;100106;-74
2022/12/06 08:41:54;;;;;;;5.00;2.80;;;4.80;99.90;;;;;;5002668;28;88152;-74
2022/12/06 08:44:21;;;;;;;4.65;3.40;;;4.90;99.90;;;;;;5019754;28;88788;-74
2022/12/06 08:46:48;;;;;;;4.55;3.05;;;4.90;99.90;;;;;;5019563;28;88049;-74
2022/12/06 08:49:16;;;;;;;6.75;3.53;;;5.00;99.90;;;;;;5019633;28;87373;-74
2022/12/06 08:51:43;;;;;;;5.38;3.15;;;5.00;99.90;;;;;;5020646;28;89016;-74
2022/12/06 08:54:13;;;;;;;9.00;3.35;;;5.00;99.90;;;;;;5018555;28;88727;-74
2022/12/06 08:56:40;;;;;;;5.55;3.70;;;5.10;99.90;;;;;;5018717;28;88874;-74
2022/12/06 08:59:07;;;;;;;7.05;4.68;;;5.10;99.90;;;;;;5019123;28;88372;-74
2022/12/06 09:01:34;;;;;;;5.82;3.47;;;5.20;99.90;;;;;;5019003;28;91245;-75
2022/12/06 09:04:06;;;;;;;6.40;3.60;;;5.20;99.90;;;;;;5035325;28;88563;-75
2022/12/06 09:06:35;;;;;;;5.07;3.78;;;5.30;99.90;;;;;;5018875;28;88079;-75
2022/12/06 09:09:02;;;;;;;5.03;3.60;;;5.40;99.90;;;;;;5018596;28;100647;-75
2022/12/06 09:11:29;;;;;;;7.13;3.63;;;5.60;99.90;;;;;;5020395;28;88805;-75
2022/12/06 09:13:56;;;;;;;4.25;3.55;;;5.80;99.90;;;;;;5019062;28;91329;-75
2022/12/06 09:16:23;;;;;;;5.35;3.58;;;5.90;99.90;;;;;;5035450;28;89339;-75
2022/12/06 09:18:51;;;;;;;5.03;3.42;;;6.10;99.90;;;;;;5001525;28;90034;-75
2022/12/06 09:21:21;;;;;;;5.38;4.00;;;6.20;99.90;;;;;;5019641;28;89608;-75
2022/12/06 09:23:49;;;;;;;5.47;3.60;;;6.30;99.90;;;;;;5034838;28;89237;-75
2022/12/06 09:26:16;;;;;;;4.65;3.40;;;6.30;99.90;;;;;;5018204;28;89908;-75
2022/12/06 09:28:50;;;;;;;4.70;3.53;;;6.40;99.90;;;;;;5018831;28;88361;-75
2022/12/06 09:31:18;;;;;;;6.40;4.03;;;6.40;99.90;;;;;;5020001;28;89013;-75
2022/12/06 09:33:45;;;;;;;8.07;3.20;;;6.50;99.90;;;;;;5035163;28;91053;-75
2022/12/06 09:36:21;;;;;;;5.55;3.05;;;6.60;99.90;;;;;;5035085;28;88021;-75
2022/12/06 09:38:55;;;;;;;4.78;3.58;;;6.70;99.90;;;;;;5019183;28;88439;-75
2022/12/06 09:41:22;;;;;;;5.75;3.20;;;6.80;99.90;;;;;;5018141;28;91457;-75
2022/12/06 09:44:40;;;;;;;4.57;2.90;;;6.90;99.90;;;;;;5019302;28;101159;-76
2022/12/06 09:47:32;;;;;;;7.93;3.22;;;7.00;99.90;;;;;;4984535;28;89520;-75
2022/12/06 09:50:23;;;;;;;6.03;3.55;;;6.90;99.90;;;;;;5019909;28;88028;-75
2022/12/06 09:53:08;;;;;;;5.05;3.40;;;6.90;99.90;;;;;;5019717;28;88568;-75
2022/12/06 09:55:56;;;;;;;5.00;3.03;;;6.80;99.90;;;;;;5017886;28;88499;-75
2022/12/06 09:58:47;;;;;;;4.00;3.20;;;6.80;99.90;;;;;;5019494;28;88587;-75
2022/12/06 10:01:42;;;;;;;3.40;2.97;;;6.80;99.90;;;;;;5018382;28;88828;-75
2022/12/06 10:04:38;;;;;;;5.03;3.10;;;6.80;99.90;;;;;;5017755;28;90346;-75
2022/12/06 10:07:18;;;;;;;3.65;2.72;;;6.80;99.90;;;;;;5019495;28;88605;-75
2022/12/06 10:10:06;;;;;;;4.95;2.90;;;6.80;99.90;;;;;;5018040;28;88392;-75
2022/12/06 10:12:52;;;;;;;4.93;2.88;;;6.90;99.90;;;;;;5019290;28;88432;-75
2022/12/06 10:15:41;;;;;;;6.13;3.03;;;6.90;99.90;;;;;;5017852;28;89433;-75
2022/12/06 10:18:19;;;;;;;4.32;2.88;;;6.90;99.90;;;;;;5000560;28;92047;-75
2022/12/06 10:20:57;;;;;;;6.63;3.00;;;6.90;99.90;;;;;;5019349;28;87983;-75
2022/12/06 10:23:30;;;;;;;4.03;2.70;;;7.00;99.90;;;;;;5019026;28;88422;-75
2022/12/06 10:26:30;;;;;;;6.15;2.85;;;7.00;99.90;;;;;;5000966;28;90311;-75
2022/12/06 10:28:57;;;;;;;5.85;2.42;;;7.00;99.90;;;;;;5019386;28;88604;-76
2022/12/06 10:31:37;;;;;;;3.20;2.47;;;7.00;99.90;;;;;;5017769;28;88101;-75
2022/12/06 10:34:21;;;;;;;3.92;2.22;;;7.10;99.90;;;;;;5017959;28;91007;-75
2022/12/06 10:37:33;;;;;;;3.30;2.00;;;7.20;99.90;;;;;;5019110;28;88679;-75
2022/12/06 10:40:25;;;;;;;5.13;2.40;;;7.20;99.90;;;;;;4937590;28;88713;-76
2022/12/06 10:43:01;;;;;;;4.07;2.17;;;7.30;99.90;;;;;;4937501;28;88912;-75
2022/12/06 10:49:03;;;;;;;3.53;2.17;;;7.30;99.90;;;;;;5018713;28;88761;-75
2022/12/06 10:51:44;;;;;;;4.68;2.20;;;7.40;99.90;;;;;;5016742;28;91218;-76
2022/12/06 10:54:25;;;;;;;4.30;2.20;;;7.40;99.90;;;;;;5017066;28;88105;-78
2022/12/06 10:56:55;;;;;;;4.40;2.22;;;7.50;99.90;;;;;;5034088;28;90075;-77
2022/12/06 10:59:33;;;;;;;4.78;2.13;;;7.50;99.90;;;;;;5017126;28;90995;-77
2022/12/06 11:02:14;;;;;;;3.58;2.22;;;7.60;99.90;;;;;;5019239;28;88370;-78
2022/12/06 11:04:43;;;;;;;3.22;2.22;;;7.60;99.90;;;;;;5034336;28;88365;-77
2022/12/06 11:07:16;;;;;;;4.05;2.50;;;7.70;99.90;;;;;;5017162;28;90813;-78
2022/12/06 11:09:48;;;;;;;3.38;2.45;;;7.80;99.90;;;;;;5016881;28;89469;-77
2022/12/06 11:12:28;;;;;;;2.83;2.33;;;7.90;99.90;;;;;;5018186;28;89510;-78
2022/12/06 11:15:18;;;;;;;2.72;2.08;;;8.10;99.90;;;;;;5017183;28;89294;-78
2022/12/06 11:17:54;;;;;;;3.10;2.30;;;8.30;99.90;;;;;;5016738;28;90999;-78
2022/12/06 11:20:38;;;;;;;4.25;2.35;;;8.40;99.90;;;;;;5018360;28;88500;-78
2022/12/06 11:23:24;;;;;;;3.60;1.77;;;8.50;99.90;;;;;;5018417;28;88615;-75
2022/12/06 11:26:03;;;;;;;2.38;1.90;;;8.60;99.90;;;;;;5018429;28;88129;-75
2022/12/06 11:28:43;;;;;;;3.38;2.00;;;8.60;99.90;;;;;;5018479;28;88470;-75
2022/12/06 11:31:29;;;;;;;3.60;1.92;;;8.70;99.90;;;;;;5016696;28;91310;-78
2022/12/06 11:33:58;;;;;;;4.25;2.22;;;8.80;99.90;;;;;;5016580;28;91499;-78
2022/12/06 11:36:27;;;;;;;2.67;2.38;;;8.70;99.90;;;;;;5017656;28;88811;-78
2022/12/06 11:38:54;;;;;;;3.80;1.85;;;8.70;99.90;;;;;;5016749;28;88626;-78
2022/12/06 11:41:25;;;;;;;3.90;2.00;;;8.80;99.90;;;;;;5017462;28;88274;-78
2022/12/06 11:43:53;;;;;;;4.45;2.00;;;8.80;99.90;;;;;;5018180;28;88529;-77
2022/12/06 11:46:21;;;;;;;2.50;1.73;;;8.80;99.90;;;;;;5017668;28;88060;-77
2022/12/06 11:48:49;;;;;;;2.63;2.00;;;8.80;99.90;;;;;;5017785;28;88193;-77
2022/12/06 11:51:23;;;;;;;5.18;1.98;;;8.80;99.90;;;;;;5017470;28;88958;-77
2022/12/06 11:54:17;;;;;;;2.75;1.70;;;8.80;99.90;;;;;;5016366;28;87884;-77
2022/12/06 11:56:45;;;;;;;5.45;1.90;;;8.80;99.90;;;;;;5016864;28;88736;-77
2022/12/06 11:59:30;;;;;;;1.90;1.80;;;8.70;99.90;;;;;;5016365;28;88461;-77
2022/12/06 12:01:59;;;;;;;2.20;1.63;;;8.70;99.90;;;;;;5017172;28;90537;-77
2022/12/06 12:04:43;;;;;;;1.95;1.75;;;8.70;99.90;;;;;;5017320;28;88141;-77
2022/12/06 12:07:21;;;;;;;7.43;2.20;;;8.80;99.90;;;;;;5017813;28;88130;-77
2022/12/06 12:10:00;;;;;;;3.50;2.05;;;8.70;99.90;;;;;;5017814;28;88054;-77
2022/12/06 12:15:27;;;;;;;2.17;1.88;;;8.80;99.90;;;;;;5017422;28;88501;-78
2022/12/06 12:17:57;;;;;;;3.70;2.45;;;8.70;99.90;;;;;;4999814;28;88130;-77
2022/12/06 12:20:30;;;;;;;2.92;2.17;;;8.60;99.90;;;;;;5017560;28;88364;-78
2022/12/06 12:23:04;;;;;;;4.72;2.00;;;8.70;99.90;;;;;;5017609;28;88717;-77
2022/12/06 12:25:35;;;;;;;3.60;1.98;;;8.60;99.90;;;;;;5017338;28;88442;-77
2022/12/06 12:28:24;;;;;;;2.97;1.88;;;8.60;99.90;;;;;;5032435;28;88791;-78
2022/12/06 12:30:56;;;;;;;4.72;2.05;;;8.70;99.90;;;;;;5017277;28;88381;-78
2022/12/06 12:33:27;;;;;;;3.17;1.92;;;8.60;99.90;;;;;;5032510;28;91262;-77
2022/12/06 12:36:04;;;;;;;3.33;1.98;;;8.60;99.90;;;;;;5015720;28;91376;-78
2022/12/06 12:38:48;;;;;;;4.60;2.50;;;8.70;99.90;;;;;;5015576;28;88144;-78
2022/12/06 12:41:27;;;;;;;;;;;8.70;99.90;;;;;;5017635;28;87934;-77
2022/12/06 12:44:04;;;;;;;3.70;1.80;;;8.60;99.90;;;;;;5018343;28;88781;-77
2022/12/06 12:47:19;;;;;;;3.60;1.88;;;8.60;99.90;;;;;;5016473;28;89479;-78
2022/12/06 12:50:14;;;;;;;2.80;2.20;;;8.60;99.90;;;;;;5012513;28;88560;-77
2022/12/06 12:52:41;;;;;;;2.08;1.88;;;8.70;99.90;;;;;;5015904;28;88480;-77
2022/12/06 12:55:22;;;;;;;2.58;1.85;;;8.60;99.90;;;;;;5018825;28;89351;-75
2022/12/06 12:57:55;;;;;;;3.05;1.85;;;8.70;99.90;;;;;;5018651;28;92057;-75
2022/12/06 13:00:33;;;;;;;2.53;1.92;;;8.70;99.90;;;;;;5020515;28;88035;-75
2022/12/06 13:03:08;;;;;;;3.65;2.20;;;8.70;99.90;;;;;;5019025;28;90023;-75
2022/12/06 13:05:56;;;;;;;3.72;2.35;;;8.80;99.90;;;;;;5020495;28;88038;-75
2022/12/06 13:08:29;;;;;;;3.75;2.08;;;8.80;99.90;;;;;;5020237;28;87989;-75
2022/12/06 13:10:59;;;;;;;2.63;2.20;;;8.90;99.90;;;;;;5020466;28;87932;-75
2022/12/06 13:13:32;;;;;;;3.08;1.90;;;8.90;99.90;;;;;;5020672;28;88600;-75
2022/12/06 13:16:00;;;;;;;2.92;1.60;;;9.10;99.90;;;;;;5018927;28;91383;-75
2022/12/06 13:18:38;;;;;;;2.78;1.85;;;9.20;99.90;;;;;;5020104;28;88622;-75
2022/12/06 13:21:24;;;;;;;3.45;2.58;;;9.30;99.90;;;;;;5019885;28;88872;-75
2022/12/06 13:24:08;;;;;;;2.95;1.77;;;9.40;99.90;;;;;;5020074;28;88304;-75
2022/12/06 13:26:44;;;;;;;3.28;1.90;;;9.40;99.90;;;;;;5019991;28;88852;-75
2022/12/06 13:29:32;;;;;;;2.92;1.88;;;9.50;99.90;;;;;;5020094;28;88888;-75
2022/12/06 13:32:24;;;;;;;2.33;2.00;;;9.50;99.90;;;;;;5020572;28;88542;-75
2022/12/06 13:34:56;;;;;;;3.15;2.00;;;9.50;99.90;;;;;;5019952;28;88272;-75
2022/12/06 13:37:33;;;;;;;2.88;1.88;;;9.40;99.90;;;;;;5018521;28;90199;-75
2022/12/06 13:40:03;;;;;;;2.70;2.05;;;9.40;99.90;;;;;;5018903;28;91218;-75
2022/12/06 13:42:36;;;;;;;2.55;2.05;;;9.40;99.90;;;;;;5018512;28;87973;-75
2022/12/06 13:45:35;;;;;;;3.87;1.97;;;9.50;99.90;;;;;;5019919;28;88050;-75
2022/12/06 13:48:02;;;;;;;2.13;1.90;;;9.50;99.90;;;;;;5018255;28;89633;-75
2022/12/06 13:50:32;;;;;;;3.30;1.95;;;9.40;99.90;;;;;;5019620;28;88274;-75
2022/12/06 13:53:00;;;;;;;2.20;1.50;;;9.40;99.90;;;;;;5018194;28;88080;-75
2022/12/06 13:55:27;;;;;;;2.20;1.67;;;9.40;99.90;;;;;;5018915;28;88357;-75